This is the latest recevied weather packets stored in our database for station/object VE7KNL-13. If no packets are shown the sender has not sent any weather packets the latest 10 day(s).
| Time | Temp. | Humidity | Pressure | Rain* | Wind** | Luminosity | Snow |
|---|---|---|---|---|---|---|---|
| 1777680016 | 24.44° C | 22% | 1011.2 hPa | 0 mm | - | - | - |
| 1777679437 | 24.44° C | 22% | 1011.3 hPa | 0 mm | - | - | - |
| 1777678816 | 24.44° C | 24% | 1011.5 hPa | 0 mm | - | - | - |
| 1777677616 | 24.44° C | 24% | 1011.7 hPa | 0 mm | - | - | - |
| 1777676416 | 24.44° C | 23% | 1011.7 hPa | 0 mm | - | - | - |
| 1777675237 | 24.44° C | 24% | 1012.2 hPa | 0 mm | - | - | - |
| 1777669216 | 23.33° C | 24% | 1013 hPa | 0 mm | - | - | - |
| 1777666816 | 23.89° C | 23% | 1013.3 hPa | 0 mm | - | - | - |
| 1777666236 | 23.33° C | 25% | 1013.5 hPa | 0 mm | - | - | - |
| 1777660218 | 21.67° C | 30% | 1014.3 hPa | 0 mm | - | - | - |
| 1777657818 | 19.44° C | 40% | 1014.8 hPa | 0 mm | - | - | - |
| 1777657218 | 18.89° C | 40% | 1015.1 hPa | 0 mm | - | - | - |
| 1777654818 | 17.22° C | 45% | 1015.2 hPa | 0 mm | - | - | - |
| 1777651818 | 13.33° C | 55% | 1016 hPa | 0 mm | - | - | - |
| 1777646417 | 7.78° C | 76% | 1016.8 hPa | 0 mm | - | - | - |
| 1777642217 | 2.22° C | 92% | 1016.5 hPa | 0 mm | - | - | - |
| 1777641017 | 2.22° C | 91% | 1016.4 hPa | 0 mm | - | - | - |
| 1777637417 | 2.22° C | 90% | 1016.4 hPa | 0 mm | - | - | - |
| 1777634417 | 2.78° C | 89% | 1016.5 hPa | 0 mm | - | - | - |
| 1777633217 | 2.78° C | 88% | 1016.5 hPa | 0 mm | - | - | - |
| 1777632037 | 2.78° C | 88% | 1016.4 hPa | 0 mm | - | - | - |
| 1777631417 | 3.33° C | 87% | 1016.5 hPa | 0 mm | - | - | - |
| 1777627217 | 3.89° C | 85% | 1016.5 hPa | 0 mm | - | - | - |
| 1777626016 | 4.44° C | 84% | 1016.6 hPa | 0 mm | - | - | - |
| 1777620616 | 6.11° C | 80% | 1016.4 hPa | 0 mm | - | - | - |
* Rain latest hour (hover to see other rain measurements)
** Current wind speed in m/s (hover to see current wind gust speed)